createdAt,value
2019-05-02T00:01:10.480Z,14.65
2019-05-02T00:03:41.199Z,15.60
2019-05-02T00:06:12.603Z,14.40
2019-05-02T00:08:42.555Z,15.58
2019-05-02T00:11:12.645Z,15.43
2019-05-02T00:13:42.501Z,15.20
2019-05-02T00:16:14.170Z,15.28
2019-05-02T00:18:44.186Z,16.50
2019-05-02T00:21:14.295Z,16.10
2019-05-02T00:23:44.224Z,16.27
2019-05-02T00:26:14.160Z,17.67
2019-05-02T00:28:48.047Z,17.77
2019-05-02T00:31:17.297Z,17.37
2019-05-02T00:33:47.226Z,17.87
2019-05-02T00:36:17.066Z,17.52
2019-05-02T00:38:46.890Z,17.87
2019-05-02T00:41:16.770Z,18.15
2019-05-02T00:43:46.771Z,17.53
2019-05-02T00:46:16.941Z,17.75
2019-05-02T00:48:59.817Z,17.50
2019-05-02T00:51:28.073Z,17.65
2019-05-02T00:53:58.242Z,17.20
2019-05-02T00:56:28.205Z,16.82
2019-05-02T00:59:02.367Z,17.25
2019-05-02T01:01:47.684Z,18.95
2019-05-02T01:04:27.662Z,18.92
2019-05-02T01:06:58.325Z,19.27
2019-05-02T01:09:28.623Z,18.35
2019-05-02T01:11:58.513Z,18.35
2019-05-02T01:14:31.853Z,17.57
2019-05-02T01:17:00.088Z,17.75
2019-05-02T01:19:30.115Z,17.98
2019-05-02T01:22:00.130Z,18.07
2019-05-02T01:24:34.118Z,17.65
2019-05-02T01:27:13.521Z,17.37
2019-05-02T01:29:49.337Z,17.98
2019-05-02T01:32:30.151Z,18.02
2019-05-02T01:35:03.186Z,17.97
2019-05-02T01:37:54.859Z,17.98
2019-05-02T01:40:23.713Z,19.52
2019-05-02T01:42:54.254Z,19.87
2019-05-02T01:45:24.245Z,19.77
2019-05-02T01:47:54.246Z,20.62
2019-05-02T01:50:24.095Z,20.65
2019-05-02T01:52:58.660Z,21.10
2019-05-02T01:55:25.541Z,20.08
2019-05-02T01:57:55.524Z,20.90
2019-05-02T02:00:25.447Z,19.48
2019-05-02T02:02:55.446Z,19.62
2019-05-02T02:05:27.585Z,20.48
2019-05-02T02:07:57.494Z,20.35
2019-05-02T02:10:27.498Z,20.92
2019-05-02T02:13:04.940Z,20.32
2019-05-02T02:15:30.186Z,20.35
2019-05-02T02:18:00.189Z,20.25
2019-05-02T02:20:33.923Z,19.67
2019-05-02T02:23:22.801Z,18.73
2019-05-02T02:26:06.837Z,19.30
2019-05-02T02:28:35.769Z,18.50
2019-05-02T02:31:07.970Z,18.23
2019-05-02T02:33:41.227Z,18.63
2019-05-02T02:36:09.075Z,18.57
2019-05-02T02:38:38.884Z,19.27
2019-05-02T02:41:13.598Z,19.23
2019-05-02T02:43:41.052Z,19.87
2019-05-02T02:46:30.638Z,19.73
2019-05-02T02:49:01.568Z,19.82
2019-05-02T02:51:31.443Z,19.77
2019-05-02T02:54:03.901Z,21.25
2019-05-02T02:56:34.365Z,20.68
2019-05-02T02:59:04.767Z,21.35
2019-05-02T03:01:34.718Z,20.37
2019-05-02T03:04:09.088Z,21.90
2019-05-02T03:06:38.212Z,22.33
2019-05-02T03:09:08.555Z,22.37
2019-05-02T03:12:09.740Z,23.27
2019-05-02T03:14:47.234Z,23.73
2019-05-02T03:17:20.289Z,24.63
2019-05-02T03:19:48.366Z,23.85
2019-05-02T03:22:18.415Z,24.57
2019-05-02T03:24:48.702Z,25.37
2019-05-02T03:27:18.561Z,25.40
2019-05-02T03:29:49.103Z,25.37
2019-05-02T03:32:32.242Z,25.62
2019-05-02T03:34:53.548Z,25.65
2019-05-02T03:37:22.499Z,23.87
2019-05-02T03:39:57.602Z,26.10
2019-05-02T03:42:24.196Z,25.65
2019-05-02T03:44:56.336Z,25.02
2019-05-02T03:47:26.798Z,25.50
2019-05-02T03:49:56.744Z,24.98
2019-05-02T03:52:26.770Z,25.35
2019-05-02T03:54:57.319Z,26.00
2019-05-02T03:57:33.419Z,25.08
2019-05-02T03:59:59.305Z,25.02
2019-05-02T04:02:29.591Z,26.27
2019-05-02T04:05:00.652Z,24.70
2019-05-02T04:07:39.957Z,25.62
2019-05-02T04:10:05.164Z,23.52
2019-05-02T04:12:35.778Z,23.65
2019-05-02T04:15:09.403Z,23.45
2019-05-02T04:17:37.611Z,23.10
2019-05-02T04:20:10.173Z,23.67
2019-05-02T04:22:42.775Z,25.57
2019-05-02T04:25:11.005Z,27.22
2019-05-02T04:27:41.740Z,28.25
2019-05-02T04:30:14.220Z,27.60
2019-05-02T04:32:49.771Z,28.98
2019-05-02T04:35:14.982Z,27.50
2019-05-02T04:37:44.881Z,27.50
2019-05-02T04:40:14.976Z,28.00
2019-05-02T04:42:51.211Z,27.10
2019-05-02T04:45:28.389Z,27.67
2019-05-02T04:47:58.521Z,27.05
2019-05-02T04:50:25.409Z,28.55
2019-05-02T04:52:54.115Z,28.38
2019-05-02T04:55:29.986Z,30.02
2019-05-02T04:57:58.779Z,28.10
2019-05-02T05:00:28.917Z,27.82
2019-05-02T05:02:59.025Z,27.55
2019-05-02T05:05:31.381Z,27.37
2019-05-02T05:08:00.594Z,27.50
2019-05-02T05:10:40.151Z,28.75
2019-05-02T05:13:02.084Z,27.55
2019-05-02T05:15:39.788Z,28.42
2019-05-02T05:18:04.616Z,27.80
2019-05-02T05:20:37.906Z,29.87
2019-05-02T05:23:08.206Z,28.95
2019-05-02T05:25:43.347Z,29.25
2019-05-02T05:28:13.213Z,28.45
2019-05-02T05:30:45.195Z,28.00
2019-05-02T05:33:14.637Z,27.55
2019-05-02T05:35:48.825Z,28.23
2019-05-02T05:38:18.074Z,28.07
2019-05-02T05:40:47.852Z,29.72
2019-05-02T05:43:20.552Z,31.02
2019-05-02T05:45:56.113Z,33.38
2019-05-02T05:48:22.305Z,35.15
2019-05-02T05:50:53.165Z,36.00
2019-05-02T05:53:24.593Z,38.25
2019-05-02T05:55:58.939Z,39.53
2019-05-02T05:58:28.266Z,37.53
2019-05-02T06:00:58.412Z,39.80
2019-05-02T06:03:28.901Z,39.67
2019-05-02T06:05:59.386Z,40.17
2019-05-02T06:08:29.218Z,41.48
2019-05-02T06:10:59.320Z,42.98
2019-05-02T06:13:29.201Z,44.90
2019-05-02T06:16:02.729Z,46.33
2019-05-02T06:18:30.862Z,51.45
2019-05-02T06:21:03.166Z,51.58
2019-05-02T06:23:36.404Z,53.48
2019-05-02T06:26:07.812Z,59.57
2019-05-02T06:28:41.289Z,61.33
2019-05-02T06:31:08.698Z,61.98
2019-05-02T06:33:40.193Z,64.75
2019-05-02T06:36:10.258Z,66.15
2019-05-02T06:38:40.326Z,74.12
2019-05-02T06:41:10.226Z,72.97
2019-05-02T06:43:46.525Z,75.57
2019-05-02T06:46:16.323Z,71.82
2019-05-02T06:48:48.277Z,73.35
2019-05-02T06:51:20.882Z,74.22
2019-05-02T06:53:51.450Z,77.53
2019-05-02T06:56:21.654Z,76.28
2019-05-02T06:58:52.349Z,76.82
2019-05-02T07:01:22.955Z,75.20
2019-05-02T07:03:53.182Z,77.78
2019-05-02T07:06:23.255Z,77.27
2019-05-02T07:08:53.363Z,77.97
2019-05-02T07:11:23.286Z,78.22
2019-05-02T07:13:53.184Z,76.12
2019-05-02T07:16:40.118Z,75.55
2019-05-02T07:19:41.382Z,74.17
2019-05-02T07:22:12.303Z,75.08
2019-05-02T07:24:42.230Z,75.00
2019-05-02T07:27:12.164Z,74.37
2019-05-02T07:29:42.222Z,76.77
2019-05-02T07:32:12.174Z,76.40
2019-05-02T07:34:44.241Z,76.47
2019-05-02T07:37:14.776Z,76.25
2019-05-02T07:39:44.674Z,75.70
2019-05-02T07:42:14.479Z,74.62
2019-05-02T07:44:44.430Z,75.50
2019-05-02T07:47:14.325Z,73.40
2019-05-02T07:49:44.309Z,73.92
2019-05-02T07:52:14.574Z,76.95
2019-05-02T07:54:44.439Z,73.65
2019-05-02T07:57:14.295Z,74.50
2019-05-02T07:59:44.211Z,73.33
2019-05-02T08:02:14.067Z,72.45
2019-05-02T08:04:44.925Z,72.42
2019-05-02T08:07:16.382Z,71.72
2019-05-02T08:09:46.646Z,69.40
2019-05-02T08:12:16.586Z,68.12
2019-05-02T08:14:46.462Z,68.10
2019-05-02T08:17:19.030Z,67.63
2019-05-02T08:19:47.928Z,68.78
2019-05-02T08:22:18.007Z,71.82
2019-05-02T08:24:48.027Z,67.62
2019-05-02T08:27:40.049Z,67.58
2019-05-02T08:30:18.674Z,68.92
2019-05-02T08:32:52.851Z,69.67
2019-05-02T08:35:22.763Z,70.10
2019-05-02T08:37:56.151Z,69.20
2019-05-02T08:40:26.782Z,70.12
2019-05-02T08:42:56.780Z,67.73
2019-05-02T08:45:26.618Z,67.37
2019-05-02T08:48:00.189Z,64.07
2019-05-02T08:50:31.986Z,64.20
2019-05-02T08:53:00.762Z,63.50
2019-05-02T08:55:31.403Z,64.80
2019-05-02T08:58:06.698Z,65.57
2019-05-02T09:00:37.600Z,64.92
2019-05-02T09:03:05.533Z,62.98
2019-05-02T09:05:36.932Z,63.85
2019-05-02T09:08:09.187Z,64.55
2019-05-02T09:10:42.218Z,66.27
2019-05-02T09:13:17.929Z,66.00
2019-05-02T09:15:49.822Z,62.40
2019-05-02T09:18:35.041Z,66.17
2019-05-02T09:20:57.279Z,61.80
2019-05-02T09:23:31.944Z,62.83
2019-05-02T09:25:59.773Z,62.35
2019-05-02T09:28:31.581Z,62.58
2019-05-02T09:31:05.105Z,61.90
2019-05-02T09:33:36.871Z,60.58
2019-05-02T09:36:05.509Z,60.53
2019-05-02T09:38:36.511Z,59.53
2019-05-02T09:41:16.298Z,56.70
2019-05-02T09:43:39.209Z,58.13
2019-05-02T09:46:12.959Z,56.03
2019-05-02T09:48:45.075Z,55.55
2019-05-02T09:51:21.614Z,58.73
2019-05-02T09:54:02.603Z,57.30
2019-05-02T09:56:33.141Z,58.42
2019-05-02T09:59:22.760Z,55.85
2019-05-02T10:01:39.118Z,52.48
2019-05-02T10:04:13.050Z,54.57
2019-05-02T10:06:44.352Z,56.15
2019-05-02T10:09:18.749Z,53.65
2019-05-02T10:11:46.315Z,52.62
2019-05-02T10:14:16.531Z,50.52
2019-05-02T10:16:46.491Z,50.50
2019-05-02T10:19:25.281Z,47.08
2019-05-02T10:21:56.254Z,48.17
2019-05-02T10:24:27.112Z,48.42
2019-05-02T10:27:04.201Z,47.10
2019-05-02T10:29:29.938Z,48.85
2019-05-02T10:32:01.784Z,46.75
2019-05-02T10:34:33.084Z,43.00
2019-05-02T10:37:03.265Z,46.28
2019-05-02T10:39:39.648Z,46.42
2019-05-02T10:42:12.485Z,44.75
2019-05-02T10:44:52.420Z,41.48
2019-05-02T10:47:22.468Z,40.67
2019-05-02T10:49:56.953Z,39.67
2019-05-02T10:52:30.080Z,36.95
2019-05-02T10:55:02.504Z,39.15
2019-05-02T10:57:32.635Z,40.78
2019-05-02T11:00:03.231Z,39.17
2019-05-02T11:02:55.323Z,39.92
2019-05-02T11:05:26.689Z,40.73
2019-05-02T11:08:04.732Z,43.08
2019-05-02T11:10:29.417Z,38.63
2019-05-02T11:13:05.509Z,39.18
2019-05-02T11:15:53.594Z,41.23
2019-05-02T11:18:39.588Z,39.30
2019-05-02T11:20:59.019Z,36.43
2019-05-02T11:23:29.759Z,37.93
2019-05-02T11:26:01.668Z,41.50
2019-05-02T11:28:35.462Z,39.48
2019-05-02T11:31:07.540Z,38.75
2019-05-02T11:33:37.070Z,38.73
2019-05-02T11:36:07.783Z,35.70
2019-05-02T11:38:38.557Z,37.35
2019-05-02T11:41:08.883Z,36.88
2019-05-02T11:43:42.402Z,35.83
2019-05-02T11:46:12.105Z,35.60
2019-05-02T11:48:54.716Z,31.87
2019-05-02T11:51:16.431Z,34.60
2019-05-02T11:53:45.292Z,37.50
2019-05-02T11:56:15.875Z,36.55
2019-05-02T11:58:48.622Z,32.80
2019-05-02T12:01:35.459Z,32.63
2019-05-02T12:03:54.639Z,29.15
2019-05-02T12:06:24.836Z,30.82
2019-05-02T12:08:55.503Z,29.10
2019-05-02T12:11:26.253Z,29.82
2019-05-02T12:13:57.255Z,34.93
2019-05-02T12:16:27.370Z,33.25
2019-05-02T12:19:08.478Z,33.92
2019-05-02T12:21:29.608Z,35.50
2019-05-02T12:24:01.663Z,37.08
2019-05-02T12:26:32.343Z,38.60
2019-05-02T12:29:02.798Z,37.58
2019-05-02T12:31:34.315Z,36.53
2019-05-02T12:34:07.837Z,39.23
2019-05-02T12:36:37.767Z,37.58
2019-05-02T12:39:07.954Z,36.42
2019-05-02T12:41:37.767Z,35.17
2019-05-02T12:44:07.623Z,33.30
2019-05-02T12:46:37.454Z,30.60
2019-05-02T12:49:07.385Z,31.03
2019-05-02T12:51:38.278Z,29.87
2019-05-02T12:54:08.134Z,31.70
2019-05-02T12:56:38.033Z,32.93
2019-05-02T12:59:07.889Z,32.93
2019-05-02T13:01:37.827Z,29.50
2019-05-02T13:04:12.557Z,28.12
2019-05-02T13:06:42.483Z,29.77
2019-05-02T13:09:13.002Z,31.15
2019-05-02T13:12:03.878Z,30.35
2019-05-02T13:14:33.798Z,26.68
2019-05-02T13:17:05.821Z,26.80
2019-05-02T13:19:40.796Z,25.90
2019-05-02T13:22:17.555Z,25.80
2019-05-02T13:24:54.913Z,29.42
2019-05-02T13:27:24.904Z,24.45
2019-05-02T13:29:54.878Z,24.20
2019-05-02T13:32:48.154Z,21.95
2019-05-02T13:35:42.117Z,19.60
2019-05-02T13:38:13.056Z,18.98
2019-05-02T13:40:44.976Z,18.20
2019-05-02T13:43:15.863Z,16.85
2019-05-02T13:46:09.721Z,17.62
2019-05-02T13:48:39.730Z,18.17
2019-05-02T13:51:11.765Z,19.82
2019-05-02T13:53:57.340Z,19.80
2019-05-02T13:56:46.221Z,19.05
2019-05-02T13:59:18.102Z,18.73
2019-05-02T14:01:51.917Z,17.55
2019-05-02T14:04:23.258Z,18.30
2019-05-02T14:06:54.645Z,19.05
2019-05-02T14:09:44.040Z,17.60
2019-05-02T14:12:48.541Z,19.30
2019-05-02T14:15:23.151Z,18.75
2019-05-02T14:17:55.834Z,17.82
2019-05-02T14:20:25.723Z,18.95
2019-05-02T14:22:55.624Z,17.48
2019-05-02T14:25:25.593Z,17.48
2019-05-02T14:27:55.844Z,18.30
2019-05-02T14:30:37.299Z,16.37
2019-05-02T14:33:02.444Z,17.30
2019-05-02T14:35:36.489Z,18.35
2019-05-02T14:38:16.485Z,18.00
2019-05-02T14:41:12.527Z,17.02
2019-05-02T14:43:56.549Z,16.48
2019-05-02T14:46:35.520Z,15.65
2019-05-02T14:48:59.240Z,15.13
2019-05-02T14:51:29.158Z,16.12
2019-05-02T14:54:03.567Z,17.35
2019-05-02T14:56:47.712Z,15.80
2019-05-02T14:59:19.821Z,16.95
2019-05-02T15:01:53.068Z,16.80
2019-05-02T15:04:26.423Z,16.90
2019-05-02T15:06:56.240Z,18.52
2019-05-02T15:09:28.200Z,19.40
2019-05-02T15:11:58.726Z,18.27
2019-05-02T15:14:32.660Z,17.60
2019-05-02T15:17:07.662Z,17.57
2019-05-02T15:19:46.010Z,18.57
2019-05-02T15:22:16.095Z,18.05
2019-05-02T15:24:45.968Z,18.70
2019-05-02T15:27:22.216Z,18.95
2019-05-02T15:30:00.451Z,20.43
2019-05-02T15:32:53.906Z,19.32
2019-05-02T15:35:38.207Z,19.90
2019-05-02T15:38:08.231Z,20.62
2019-05-02T15:40:46.995Z,20.97
2019-05-02T15:43:09.992Z,20.23
2019-05-02T15:45:42.181Z,21.55
2019-05-02T15:48:16.079Z,21.60
2019-05-02T15:50:50.174Z,21.23
2019-05-02T15:53:39.105Z,21.87
2019-05-02T15:56:18.755Z,21.62
2019-05-02T15:58:39.735Z,22.27
2019-05-02T16:01:22.559Z,19.07
2019-05-02T16:03:53.607Z,21.00
2019-05-02T16:06:30.496Z,21.33
2019-05-02T16:08:55.340Z,20.65
2019-05-02T16:11:25.382Z,19.57
2019-05-02T16:13:56.174Z,18.70
2019-05-02T16:16:26.422Z,19.20
2019-05-02T16:18:56.349Z,18.70
2019-05-02T16:21:35.022Z,20.05
2019-05-02T16:24:22.909Z,18.25
2019-05-02T16:26:56.670Z,19.17
2019-05-02T16:29:28.343Z,19.57
2019-05-02T16:32:14.578Z,19.90
2019-05-02T16:34:56.433Z,19.63
2019-05-02T16:37:26.354Z,20.55
2019-05-02T16:39:56.537Z,20.72
2019-05-02T16:42:26.527Z,20.12
2019-05-02T16:44:56.536Z,18.60
2019-05-02T16:47:26.556Z,18.20
2019-05-02T16:49:56.696Z,18.70
2019-05-02T16:52:26.736Z,18.07
2019-05-02T16:54:56.635Z,17.12
2019-05-02T16:57:26.597Z,18.55
2019-05-02T17:00:01.444Z,18.42
2019-05-02T17:02:28.107Z,18.05
2019-05-02T17:05:00.148Z,16.80
2019-05-02T17:07:47.044Z,18.25
2019-05-02T17:10:34.850Z,16.75
2019-05-02T17:13:04.603Z,16.27
2019-05-02T17:15:36.187Z,15.23
2019-05-02T17:18:17.861Z,15.03
2019-05-02T17:20:39.095Z,14.25
2019-05-02T17:23:09.010Z,13.48
2019-05-02T17:25:38.897Z,13.05
2019-05-02T17:28:11.197Z,13.58
2019-05-02T17:30:42.898Z,12.25
2019-05-02T17:33:16.028Z,12.68
2019-05-02T17:35:49.439Z,11.67
2019-05-02T17:38:19.133Z,11.40
2019-05-02T17:40:47.179Z,11.70
2019-05-02T17:43:17.082Z,11.75
2019-05-02T17:45:47.958Z,11.30
2019-05-02T17:48:18.124Z,11.73
2019-05-02T17:51:02.179Z,10.35
2019-05-02T17:53:33.515Z,10.25
2019-05-02T17:56:03.750Z,9.90
2019-05-02T17:58:33.726Z,9.53
2019-05-02T18:01:06.758Z,9.00
2019-05-02T18:03:36.872Z,8.78
2019-05-02T18:06:07.454Z,9.25
2019-05-02T18:08:38.730Z,9.85
2019-05-02T18:11:09.015Z,8.98
2019-05-02T18:13:39.040Z,8.20
2019-05-02T18:16:15.093Z,7.70
2019-05-02T18:18:45.434Z,7.80
2019-05-02T18:21:12.688Z,8.13
2019-05-02T18:23:42.916Z,10.55
2019-05-02T18:26:13.955Z,10.13
2019-05-02T18:28:48.931Z,15.10
2019-05-02T18:31:15.628Z,11.67
2019-05-02T18:33:45.702Z,9.93
2019-05-02T18:36:17.461Z,8.80
2019-05-02T18:38:52.382Z,9.05
2019-05-02T18:41:19.476Z,8.90
2019-05-02T18:43:49.786Z,9.03
2019-05-02T18:46:20.066Z,9.00
2019-05-02T18:48:51.917Z,9.60
2019-05-02T18:51:22.448Z,9.43
2019-05-02T18:53:57.896Z,9.40
2019-05-02T18:56:27.347Z,9.40
2019-05-02T18:58:57.316Z,9.17
2019-05-02T19:01:27.765Z,10.28
2019-05-02T19:03:57.819Z,10.58
2019-05-02T19:06:32.411Z,10.47
2019-05-02T19:09:03.136Z,11.00
2019-05-02T19:11:36.201Z,11.50
2019-05-02T19:14:06.388Z,11.75
2019-05-02T19:16:36.415Z,12.25
2019-05-02T19:19:06.416Z,12.20
2019-05-02T19:21:39.395Z,12.05
2019-05-02T19:24:08.586Z,12.75
2019-05-02T19:26:41.611Z,12.82
2019-05-02T19:29:31.664Z,13.83
2019-05-02T19:32:17.547Z,15.13
2019-05-02T19:34:48.744Z,14.95
2019-05-02T19:37:21.909Z,16.77
2019-05-02T19:39:52.500Z,16.60
2019-05-02T19:42:26.149Z,17.30
2019-05-02T19:44:54.390Z,17.15
2019-05-02T19:47:24.580Z,17.00
2019-05-02T19:49:56.234Z,17.10
2019-05-02T19:52:28.665Z,15.88
2019-05-02T19:54:59.055Z,15.32
2019-05-02T19:57:29.584Z,14.30
2019-05-02T20:00:02.848Z,13.70
2019-05-02T20:02:32.686Z,13.67
2019-05-02T20:05:03.185Z,13.87
2019-05-02T20:07:34.681Z,13.00
2019-05-02T20:10:04.892Z,12.60
2019-05-02T20:12:35.105Z,12.03
2019-05-02T20:15:05.973Z,12.15
2019-05-02T20:17:35.987Z,11.68
2019-05-02T20:20:09.839Z,10.80
2019-05-02T20:22:41.023Z,10.40
2019-05-02T20:25:12.567Z,9.23
2019-05-02T20:27:44.322Z,8.73
2019-05-02T20:30:14.294Z,8.70
2019-05-02T20:32:44.538Z,8.78
2019-05-02T20:35:14.797Z,7.60
2019-05-02T20:37:44.988Z,7.12
2019-05-02T20:40:34.122Z,8.25
2019-05-02T20:43:05.656Z,7.33
2019-05-02T20:45:37.722Z,6.92
2019-05-02T20:48:07.708Z,6.87
2019-05-02T20:50:37.797Z,6.97
2019-05-02T20:53:07.823Z,6.43
2019-05-02T20:55:41.563Z,6.47
2019-05-02T20:58:12.738Z,6.08
2019-05-02T21:00:44.129Z,5.97
2019-05-02T21:03:14.170Z,6.10
2019-05-02T21:06:12.224Z,5.57
2019-05-02T21:09:02.795Z,6.00
2019-05-02T21:11:34.977Z,6.50
2019-05-02T21:14:05.020Z,8.48
2019-05-02T21:16:38.152Z,6.12
2019-05-02T21:19:07.999Z,5.70
2019-05-02T21:21:40.742Z,6.22
2019-05-02T21:24:11.110Z,6.43
2019-05-02T21:26:42.131Z,6.45
2019-05-02T21:29:12.329Z,6.45
2019-05-02T21:31:42.618Z,6.57
2019-05-02T21:34:13.798Z,6.35
2019-05-02T21:36:43.741Z,6.60
2019-05-02T21:39:13.666Z,6.87
2019-05-02T21:41:43.723Z,6.70
2019-05-02T21:44:13.669Z,6.80
2019-05-02T21:46:43.769Z,7.25
2019-05-02T21:49:15.888Z,7.22
2019-05-02T21:52:11.909Z,7.33
2019-05-02T21:54:58.325Z,7.47
2019-05-02T21:57:28.246Z,7.40
2019-05-02T21:59:58.290Z,7.47
2019-05-02T22:02:29.355Z,7.25
2019-05-02T22:05:02.171Z,7.90
2019-05-02T22:07:32.327Z,7.72
2019-05-02T22:10:03.016Z,8.40
2019-05-02T22:12:33.213Z,7.35
2019-05-02T22:15:03.311Z,8.05
2019-05-02T22:17:33.250Z,7.67
2019-05-02T22:20:03.202Z,7.28
2019-05-02T22:22:34.371Z,7.05
2019-05-02T22:25:04.418Z,7.20
2019-05-02T22:27:34.310Z,7.28
2019-05-02T22:30:05.122Z,6.90
2019-05-02T22:32:35.025Z,7.12
2019-05-02T22:35:05.395Z,7.05
2019-05-02T22:37:35.796Z,6.92
2019-05-02T22:40:08.437Z,6.70
2019-05-02T22:42:38.262Z,6.67
2019-05-02T22:45:09.575Z,6.83
2019-05-02T22:47:39.627Z,6.40
2019-05-02T22:50:13.914Z,6.45
2019-05-02T22:52:41.961Z,6.28
2019-05-02T22:55:12.046Z,6.13
2019-05-02T22:57:43.863Z,6.10
2019-05-02T23:00:13.807Z,5.20
2019-05-02T23:02:43.683Z,4.95
2019-05-02T23:05:13.880Z,4.70
2019-05-02T23:07:43.753Z,4.83
2019-05-02T23:10:13.670Z,4.77
2019-05-02T23:12:43.494Z,4.53
2019-05-02T23:15:13.519Z,5.67
2019-05-02T23:17:43.319Z,5.78
2019-05-02T23:20:13.634Z,6.42
2019-05-02T23:22:43.563Z,6.05
2019-05-02T23:25:32.402Z,6.70
2019-05-02T23:28:06.947Z,7.03
2019-05-02T23:30:36.762Z,7.28
2019-05-02T23:33:06.603Z,7.70
2019-05-02T23:35:36.474Z,7.90
2019-05-02T23:38:06.426Z,8.40
2019-05-02T23:40:36.240Z,8.40
2019-05-02T23:43:06.147Z,8.70
2019-05-02T23:45:36.089Z,9.30
2019-05-02T23:48:06.050Z,9.95
2019-05-02T23:50:35.878Z,9.78
2019-05-02T23:53:05.704Z,10.15
2019-05-02T23:55:35.648Z,10.23
2019-05-02T23:58:05.479Z,10.82
